sensor_id;sensor_type;location;lat;lon;timestamp;pressure;altitude;pressure_sealevel;temperature;humidity
48882;BME280;57063;51.406;-2.402;2023-07-29T00:00:14;99534.16;;;15.33;100.00
48882;BME280;57063;51.406;-2.402;2023-07-29T00:02:39;99538.50;;;15.43;100.00
48882;BME280;57063;51.406;-2.402;2023-07-29T00:05:05;99547.13;;;15.43;100.00
48882;BME280;57063;51.406;-2.402;2023-07-29T00:07:30;99538.41;;;15.34;100.00
48882;BME280;57063;51.406;-2.402;2023-07-29T00:09:55;99532.53;;;15.32;100.00
48882;BME280;57063;51.406;-2.402;2023-07-29T00:12:21;99533.22;;;15.34;100.00
48882;BME280;57063;51.406;-2.402;2023-07-29T00:14:46;99525.03;;;15.19;100.00
48882;BME280;57063;51.406;-2.402;2023-07-29T00:17:11;99518.19;;;15.18;100.00
48882;BME280;57063;51.406;-2.402;2023-07-29T00:19:37;99517.75;;;15.23;100.00
48882;BME280;57063;51.406;-2.402;2023-07-29T00:22:02;99512.56;;;15.23;100.00
48882;BME280;57063;51.406;-2.402;2023-07-29T00:24:28;99504.78;;;15.13;100.00
48882;BME280;57063;51.406;-2.402;2023-07-29T00:26:53;99495.50;;;15.11;100.00
48882;BME280;57063;51.406;-2.402;2023-07-29T00:29:18;99504.94;;;15.12;100.00
48882;BME280;57063;51.406;-2.402;2023-07-29T00:31:43;99499.31;;;15.16;100.00
48882;BME280;57063;51.406;-2.402;2023-07-29T00:34:09;99496.84;;;15.25;100.00
48882;BME280;57063;51.406;-2.402;2023-07-29T00:36:34;99493.19;;;15.08;100.00
48882;BME280;57063;51.406;-2.402;2023-07-29T00:38:59;99494.97;;;15.07;100.00
48882;BME280;57063;51.406;-2.402;2023-07-29T00:41:25;99487.00;;;15.09;100.00
48882;BME280;57063;51.406;-2.402;2023-07-29T00:43:51;99486.03;;;15.19;100.00
48882;BME280;57063;51.406;-2.402;2023-07-29T00:46:16;99484.81;;;15.14;100.00
48882;BME280;57063;51.406;-2.402;2023-07-29T00:48:42;99490.00;;;15.14;100.00
48882;BME280;57063;51.406;-2.402;2023-07-29T00:51:07;99494.13;;;15.07;100.00
48882;BME280;57063;51.406;-2.402;2023-07-29T00:53:33;99490.88;;;15.05;100.00
48882;BME280;57063;51.406;-2.402;2023-07-29T00:55:58;99487.81;;;15.09;100.00
48882;BME280;57063;51.406;-2.402;2023-07-29T00:58:24;99487.56;;;15.12;100.00
48882;BME280;57063;51.406;-2.402;2023-07-29T01:00:50;99484.16;;;15.12;100.00
48882;BME280;57063;51.406;-2.402;2023-07-29T01:03:15;99487.00;;;15.09;100.00
48882;BME280;57063;51.406;-2.402;2023-07-29T01:05:54;99486.91;;;15.01;100.00
48882;BME280;57063;51.406;-2.402;2023-07-29T01:08:38;99475.69;;;15.10;100.00
48882;BME280;57063;51.406;-2.402;2023-07-29T01:13:58;99484.59;;;14.97;100.00
48882;BME280;57063;51.406;-2.402;2023-07-29T01:16:48;99484.84;;;14.94;100.00
48882;BME280;57063;51.406;-2.402;2023-07-29T01:22:10;99467.88;;;15.10;100.00
48882;BME280;57063;51.406;-2.402;2023-07-29T01:24:36;99476.78;;;15.07;100.00
48882;BME280;57063;51.406;-2.402;2023-07-29T01:27:02;99470.19;;;15.13;100.00
48882;BME280;57063;51.406;-2.402;2023-07-29T01:29:30;99474.03;;;15.09;100.00
48882;BME280;57063;51.406;-2.402;2023-07-29T01:31:57;99473.88;;;15.10;100.00
48882;BME280;57063;51.406;-2.402;2023-07-29T01:34:29;99470.63;;;14.98;100.00
48882;BME280;57063;51.406;-2.402;2023-07-29T01:36:57;99469.13;;;14.96;100.00
48882;BME280;57063;51.406;-2.402;2023-07-29T01:39:26;99474.63;;;14.93;100.00
48882;BME280;57063;51.406;-2.402;2023-07-29T01:41:53;99475.56;;;14.92;100.00
48882;BME280;57063;51.406;-2.402;2023-07-29T01:44:19;99466.94;;;14.91;100.00
48882;BME280;57063;51.406;-2.402;2023-07-29T01:46:46;99467.63;;;14.93;100.00
48882;BME280;57063;51.406;-2.402;2023-07-29T01:49:11;99472.28;;;14.90;100.00
48882;BME280;57063;51.406;-2.402;2023-07-29T01:51:37;99468.47;;;14.84;100.00
48882;BME280;57063;51.406;-2.402;2023-07-29T01:54:03;99469.69;;;14.80;100.00
48882;BME280;57063;51.406;-2.402;2023-07-29T01:56:28;99461.63;;;14.83;100.00
48882;BME280;57063;51.406;-2.402;2023-07-29T01:58:53;99462.59;;;14.82;100.00
48882;BME280;57063;51.406;-2.402;2023-07-29T02:01:19;99477.06;;;14.85;100.00
48882;BME280;57063;51.406;-2.402;2023-07-29T02:03:44;99464.78;;;14.77;100.00
48882;BME280;57063;51.406;-2.402;2023-07-29T02:06:09;99465.34;;;14.81;100.00
48882;BME280;57063;51.406;-2.402;2023-07-29T02:08:35;99467.38;;;14.77;100.00
48882;BME280;57063;51.406;-2.402;2023-07-29T02:11:00;99468.06;;;14.79;100.00
48882;BME280;57063;51.406;-2.402;2023-07-29T02:13:26;99460.41;;;14.68;100.00
48882;BME280;57063;51.406;-2.402;2023-07-29T02:15:51;99457.41;;;14.72;100.00
48882;BME280;57063;51.406;-2.402;2023-07-29T02:18:17;99469.16;;;14.67;100.00
48882;BME280;57063;51.406;-2.402;2023-07-29T02:20:42;99474.25;;;14.68;100.00
48882;BME280;57063;51.406;-2.402;2023-07-29T02:23:14;99467.25;;;14.69;100.00
48882;BME280;57063;51.406;-2.402;2023-07-29T02:25:39;99476.97;;;14.67;100.00
48882;BME280;57063;51.406;-2.402;2023-07-29T02:28:05;99466.28;;;14.60;100.00
48882;BME280;57063;51.406;-2.402;2023-07-29T02:30:30;99457.00;;;14.58;100.00
48882;BME280;57063;51.406;-2.402;2023-07-29T02:32:55;99459.16;;;14.52;100.00
48882;BME280;57063;51.406;-2.402;2023-07-29T02:35:21;99464.94;;;14.66;100.00
48882;BME280;57063;51.406;-2.402;2023-07-29T02:37:46;99458.38;;;14.62;100.00
48882;BME280;57063;51.406;-2.402;2023-07-29T02:40:11;99456.75;;;14.61;100.00
48882;BME280;57063;51.406;-2.402;2023-07-29T02:42:37;99451.69;;;14.59;100.00
48882;BME280;57063;51.406;-2.402;2023-07-29T02:45:02;99459.19;;;14.62;100.00
48882;BME280;57063;51.406;-2.402;2023-07-29T02:47:28;99461.09;;;14.60;100.00
48882;BME280;57063;51.406;-2.402;2023-07-29T02:49:53;99454.97;;;14.61;100.00
48882;BME280;57063;51.406;-2.402;2023-07-29T02:52:19;99454.69;;;14.54;100.00
48882;BME280;57063;51.406;-2.402;2023-07-29T02:54:44;99455.38;;;14.57;100.00
48882;BME280;57063;51.406;-2.402;2023-07-29T02:57:09;99457.81;;;14.68;100.00
48882;BME280;57063;51.406;-2.402;2023-07-29T02:59:34;99452.38;;;14.61;100.00
48882;BME280;57063;51.406;-2.402;2023-07-29T03:02:00;99452.91;;;14.65;100.00
48882;BME280;57063;51.406;-2.402;2023-07-29T03:04:25;99452.91;;;14.65;100.00
48882;BME280;57063;51.406;-2.402;2023-07-29T03:06:51;99451.81;;;14.58;100.00
48882;BME280;57063;51.406;-2.402;2023-07-29T03:09:16;99449.38;;;14.56;100.00
48882;BME280;57063;51.406;-2.402;2023-07-29T03:11:42;99451.28;;;14.54;100.00
48882;BME280;57063;51.406;-2.402;2023-07-29T03:14:07;99449.75;;;14.51;100.00
48882;BME280;57063;51.406;-2.402;2023-07-29T03:16:32;99456.31;;;14.55;100.00
48882;BME280;57063;51.406;-2.402;2023-07-29T03:18:58;99457.78;;;14.48;100.00
48882;BME280;57063;51.406;-2.402;2023-07-29T03:21:25;99459.72;;;14.46;100.00
48882;BME280;57063;51.406;-2.402;2023-07-29T03:23:50;99452.34;;;14.51;100.00
48882;BME280;57063;51.406;-2.402;2023-07-29T03:26:16;99449.34;;;14.46;100.00
48882;BME280;57063;51.406;-2.402;2023-07-29T03:28:42;99448.38;;;14.47;100.00
48882;BME280;57063;51.406;-2.402;2023-07-29T03:31:09;99456.03;;;14.49;100.00
48882;BME280;57063;51.406;-2.402;2023-07-29T03:33:34;99449.34;;;14.46;100.00
48882;BME280;57063;51.406;-2.402;2023-07-29T03:36:00;99452.88;;;14.45;100.00
48882;BME280;57063;51.406;-2.402;2023-07-29T03:38:25;99456.16;;;14.38;100.00
48882;BME280;57063;51.406;-2.402;2023-07-29T03:40:51;99453.69;;;14.36;100.00
48882;BME280;57063;51.406;-2.402;2023-07-29T03:43:16;99459.16;;;14.33;100.00
48882;BME280;57063;51.406;-2.402;2023-07-29T03:45:42;99454.66;;;14.25;100.00
48882;BME280;57063;51.406;-2.402;2023-07-29T03:48:08;99453.69;;;14.26;100.00
48882;BME280;57063;51.406;-2.402;2023-07-29T03:50:34;99450.56;;;14.23;100.00
48882;BME280;57063;51.406;-2.402;2023-07-29T03:53:01;99450.16;;;14.18;100.00
48882;BME280;57063;51.406;-2.402;2023-07-29T03:55:27;99450.69;;;14.21;100.00
48882;BME280;57063;51.406;-2.402;2023-07-29T03:57:52;99451.25;;;14.25;100.00
48882;BME280;57063;51.406;-2.402;2023-07-29T04:00:17;99444.97;;;14.18;100.00
48882;BME280;57063;51.406;-2.402;2023-07-29T04:02:43;99450.69;;;14.11;100.00
48882;BME280;57063;51.406;-2.402;2023-07-29T04:05:10;99446.34;;;14.22;100.00
48882;BME280;57063;51.406;-2.402;2023-07-29T04:07:36;99446.34;;;14.12;100.00
48882;BME280;57063;51.406;-2.402;2023-07-29T04:10:02;99458.75;;;14.08;100.00
48882;BME280;57063;51.406;-2.402;2023-07-29T04:12:27;99453.94;;;14.04;100.00
48882;BME280;57063;51.406;-2.402;2023-07-29T04:14:53;99460.41;;;14.09;100.00
48882;BME280;57063;51.406;-2.402;2023-07-29T04:17:18;99453.13;;;14.03;100.00
48882;BME280;57063;51.406;-2.402;2023-07-29T04:19:44;99463.25;;;14.26;100.00
48882;BME280;57063;51.406;-2.402;2023-07-29T04:22:09;99457.94;;;14.18;100.00
48882;BME280;57063;51.406;-2.402;2023-07-29T04:24:34;99462.72;;;14.12;100.00
48882;BME280;57063;51.406;-2.402;2023-07-29T04:27:00;99467.06;;;14.02;100.00
48882;BME280;57063;51.406;-2.402;2023-07-29T04:29:25;99468.41;;;13.97;100.00
48882;BME280;57063;51.406;-2.402;2023-07-29T04:31:51;99463.78;;;14.00;100.00
48882;BME280;57063;51.406;-2.402;2023-07-29T04:34:17;99465.56;;;14.00;100.00
48882;BME280;57063;51.406;-2.402;2023-07-29T04:36:43;99465.41;;;14.01;100.00
48882;BME280;57063;51.406;-2.402;2023-07-29T04:39:08;99458.06;;;14.06;100.00
48882;BME280;57063;51.406;-2.402;2023-07-29T04:41:34;99455.03;;;14.01;100.00
48882;BME280;57063;51.406;-2.402;2023-07-29T04:43:59;99458.84;;;13.97;100.00
48882;BME280;57063;51.406;-2.402;2023-07-29T04:46:25;99460.50;;;13.98;100.00
48882;BME280;57063;51.406;-2.402;2023-07-29T04:48:50;99457.34;;;14.04;100.00
48882;BME280;57063;51.406;-2.402;2023-07-29T04:51:15;99458.31;;;14.03;100.00
48882;BME280;57063;51.406;-2.402;2023-07-29T04:53:41;99463.00;;;14.09;100.00
48882;BME280;57063;51.406;-2.402;2023-07-29T04:56:06;99460.53;;;14.18;100.00
48882;BME280;57063;51.406;-2.402;2023-07-29T04:58:31;99473.63;;;14.16;100.00
48882;BME280;57063;51.406;-2.402;2023-07-29T05:00:59;99471.59;;;14.20;100.00
48882;BME280;57063;51.406;-2.402;2023-07-29T05:03:25;99472.44;;;14.30;100.00
48882;BME280;57063;51.406;-2.402;2023-07-29T05:05:51;99467.63;;;14.25;100.00
48882;BME280;57063;51.406;-2.402;2023-07-29T05:08:18;99482.41;;;14.34;100.00
48882;BME280;57063;51.406;-2.402;2023-07-29T05:10:44;99474.75;;;14.33;100.00
48882;BME280;57063;51.406;-2.402;2023-07-29T05:13:09;99471.75;;;14.38;100.00
48882;BME280;57063;51.406;-2.402;2023-07-29T05:15:34;99479.81;;;14.44;100.00
48882;BME280;57063;51.406;-2.402;2023-07-29T05:18:00;99478.72;;;14.47;100.00
48882;BME280;57063;51.406;-2.402;2023-07-29T05:20:25;99480.22;;;14.49;100.00
48882;BME280;57063;51.406;-2.402;2023-07-29T05:22:50;99476.16;;;14.66;100.00
48882;BME280;57063;51.406;-2.402;2023-07-29T05:25:16;99473.41;;;14.68;100.00
48882;BME280;57063;51.406;-2.402;2023-07-29T05:27:41;99482.69;;;14.80;100.00
48882;BME280;57063;51.406;-2.402;2023-07-29T05:30:07;99484.63;;;14.78;100.00
48882;BME280;57063;51.406;-2.402;2023-07-29T05:32:33;99477.06;;;14.85;100.00
48882;BME280;57063;51.406;-2.402;2023-07-29T05:34:58;99476.66;;;14.89;100.00
48882;BME280;57063;51.406;-2.402;2023-07-29T05:37:23;99474.19;;;14.97;100.00
48882;BME280;57063;51.406;-2.402;2023-07-29T05:39:49;99473.34;;;15.07;100.00
48882;BME280;57063;51.406;-2.402;2023-07-29T05:42:14;99474.69;;;15.20;100.00
48882;BME280;57063;51.406;-2.402;2023-07-29T05:44:39;99475.63;;;15.29;100.00
48882;BME280;57063;51.406;-2.402;2023-07-29T05:47:05;99473.25;;;15.36;100.00
48882;BME280;57063;51.406;-2.402;2023-07-29T05:49:30;99478.03;;;15.40;100.00
48882;BME280;57063;51.406;-2.402;2023-07-29T05:51:56;99479.69;;;15.41;100.00
48882;BME280;57063;51.406;-2.402;2023-07-29T05:54:21;99474.88;;;15.47;100.00
48882;BME280;57063;51.406;-2.402;2023-07-29T05:56:46;99474.41;;;15.61;100.00
48882;BME280;57063;51.406;-2.402;2023-07-29T05:59:12;99478.31;;;15.65;100.00
48882;BME280;57063;51.406;-2.402;2023-07-29T06:01:37;99485.94;;;15.86;100.00
48882;BME280;57063;51.406;-2.402;2023-07-29T06:04:03;99482.28;;;15.97;100.00
48882;BME280;57063;51.406;-2.402;2023-07-29T06:06:28;99481.44;;;16.06;100.00
48882;BME280;57063;51.406;-2.402;2023-07-29T06:08:54;99482.78;;;16.10;100.00
48882;BME280;57063;51.406;-2.402;2023-07-29T06:11:19;99483.84;;;16.17;100.00
48882;BME280;57063;51.406;-2.402;2023-07-29T06:13:47;99483.91;;;16.25;100.00
48882;BME280;57063;51.406;-2.402;2023-07-29T06:16:13;99479.75;;;16.15;100.00
48882;BME280;57063;51.406;-2.402;2023-07-29T06:18:38;99481.53;;;16.14;100.00
48882;BME280;57063;51.406;-2.402;2023-07-29T06:21:03;99478.94;;;16.14;100.00
48882;BME280;57063;51.406;-2.402;2023-07-29T06:23:32;99487.25;;;16.36;100.00
48882;BME280;57063;51.406;-2.402;2023-07-29T06:25:58;99487.53;;;16.33;100.00
48882;BME280;57063;51.406;-2.402;2023-07-29T06:28:25;99489.69;;;16.55;100.00
48882;BME280;57063;51.406;-2.402;2023-07-29T06:30:51;99490.97;;;16.69;100.00
48882;BME280;57063;51.406;-2.402;2023-07-29T06:33:16;99488.50;;;16.67;100.00
48882;BME280;57063;51.406;-2.402;2023-07-29T06:35:41;99485.81;;;16.95;100.00
48882;BME280;57063;51.406;-2.402;2023-07-29T06:38:07;99485.56;;;16.80;100.00
48882;BME280;57063;51.406;-2.402;2023-07-29T06:40:32;99490.19;;;16.77;100.00
48882;BME280;57063;51.406;-2.402;2023-07-29T06:42:58;99493.44;;;17.15;100.00
48882;BME280;57063;51.406;-2.402;2023-07-29T06:45:23;99493.94;;;18.62;93.68
48882;BME280;57063;51.406;-2.402;2023-07-29T06:47:48;99494.31;;;19.48;84.13
48882;BME280;57063;51.406;-2.402;2023-07-29T06:50:14;99494.53;;;20.63;74.21
48882;BME280;57063;51.406;-2.402;2023-07-29T06:52:39;99494.91;;;18.69;84.39
48882;BME280;57063;51.406;-2.402;2023-07-29T06:55:06;99505.22;;;17.87;90.25
48882;BME280;57063;51.406;-2.402;2023-07-29T06:57:31;99501.34;;;17.65;93.95
48882;BME280;57063;51.406;-2.402;2023-07-29T06:59:57;99498.38;;;17.26;97.38
48882;BME280;57063;51.406;-2.402;2023-07-29T07:02:22;99511.41;;;17.26;100.00
48882;BME280;57063;51.406;-2.402;2023-07-29T07:04:48;99506.38;;;16.98;100.00
48882;BME280;57063;51.406;-2.402;2023-07-29T07:07:15;99500.25;;;16.89;100.00
48882;BME280;57063;51.406;-2.402;2023-07-29T07:09:41;99513.47;;;16.88;100.00
48882;BME280;57063;51.406;-2.402;2023-07-29T07:12:07;99516.34;;;16.85;100.00
48882;BME280;57063;51.406;-2.402;2023-07-29T07:14:33;99512.63;;;16.69;100.00
48882;BME280;57063;51.406;-2.402;2023-07-29T07:16:58;99510.53;;;16.73;100.00
48882;BME280;57063;51.406;-2.402;2023-07-29T07:19:23;99512.16;;;16.74;100.00
48882;BME280;57063;51.406;-2.402;2023-07-29T07:21:49;99513.56;;;17.04;98.09
48882;BME280;57063;51.406;-2.402;2023-07-29T07:24:14;99508.44;;;18.48;89.39
48882;BME280;57063;51.406;-2.402;2023-07-29T07:26:39;99509.28;;;17.82;91.37
48882;BME280;57063;51.406;-2.402;2023-07-29T07:29:05;99513.56;;;17.30;94.75
48882;BME280;57063;51.406;-2.402;2023-07-29T07:31:33;99508.31;;;18.99;84.11
48882;BME280;57063;51.406;-2.402;2023-07-29T07:33:58;99516.97;;;18.99;82.22
48882;BME280;57063;51.406;-2.402;2023-07-29T07:36:24;99518.28;;;18.71;84.21
48882;BME280;57063;51.406;-2.402;2023-07-29T07:38:49;99516.41;;;19.45;81.64
48882;BME280;57063;51.406;-2.402;2023-07-29T07:41:15;99518.44;;;19.10;81.41
48882;BME280;57063;51.406;-2.402;2023-07-29T07:43:41;99512.09;;;18.80;79.12
48882;BME280;57063;51.406;-2.402;2023-07-29T07:46:06;99516.81;;;19.01;79.62
48882;BME280;57063;51.406;-2.402;2023-07-29T07:48:31;99528.28;;;19.00;78.68
48882;BME280;57063;51.406;-2.402;2023-07-29T07:50:58;99530.75;;;19.65;77.56
48882;BME280;57063;51.406;-2.402;2023-07-29T07:53:23;99524.63;;;21.72;66.44
48882;BME280;57063;51.406;-2.402;2023-07-29T07:55:50;99531.94;;;22.64;64.25
48882;BME280;57063;51.406;-2.402;2023-07-29T07:58:16;99526.19;;;21.67;65.43
48882;BME280;57063;51.406;-2.402;2023-07-29T08:00:41;99524.22;;;23.76;58.75
48882;BME280;57063;51.406;-2.402;2023-07-29T08:03:07;99527.00;;;22.18;62.14
48882;BME280;57063;51.406;-2.402;2023-07-29T08:05:32;99530.13;;;21.18;63.69
48882;BME280;57063;51.406;-2.402;2023-07-29T08:07:57;99527.25;;;21.72;63.83
48882;BME280;57063;51.406;-2.402;2023-07-29T08:10:24;99528.63;;;22.19;62.26
48882;BME280;57063;51.406;-2.402;2023-07-29T08:12:49;99530.16;;;22.14;61.75
48882;BME280;57063;51.406;-2.402;2023-07-29T08:15:14;99533.38;;;21.20;62.54
48882;BME280;57063;51.406;-2.402;2023-07-29T08:17:40;99535.03;;;20.83;63.89
48882;BME280;57063;51.406;-2.402;2023-07-29T08:20:05;99534.59;;;20.94;65.74
48882;BME280;57063;51.406;-2.402;2023-07-29T08:22:31;99529.03;;;22.38;60.38
48882;BME280;57063;51.406;-2.402;2023-07-29T08:24:57;99529.22;;;22.00;60.87
48882;BME280;57063;51.406;-2.402;2023-07-29T08:27:22;99533.06;;;22.19;60.61
48882;BME280;57063;51.406;-2.402;2023-07-29T08:29:48;99532.41;;;22.75;57.97
48882;BME280;57063;51.406;-2.402;2023-07-29T08:32:14;99534.63;;;23.21;58.46
48882;BME280;57063;51.406;-2.402;2023-07-29T08:34:39;99537.31;;;24.10;55.43
48882;BME280;57063;51.406;-2.402;2023-07-29T08:37:05;99532.66;;;24.06;52.64
48882;BME280;57063;51.406;-2.402;2023-07-29T08:39:30;99533.66;;;24.11;52.91
48882;BME280;57063;51.406;-2.402;2023-07-29T08:42:04;99529.09;;;23.79;52.77
48882;BME280;57063;51.406;-2.402;2023-07-29T08:44:41;99550.09;;;23.02;55.46
48882;BME280;57063;51.406;-2.402;2023-07-29T08:47:07;99549.06;;;22.02;57.25
48882;BME280;57063;51.406;-2.402;2023-07-29T08:49:33;99545.03;;;21.70;60.00
48882;BME280;57063;51.406;-2.402;2023-07-29T08:51:59;99546.16;;;20.85;62.17
48882;BME280;57063;51.406;-2.402;2023-07-29T08:54:25;99545.44;;;21.14;61.41
48882;BME280;57063;51.406;-2.402;2023-07-29T08:56:50;99551.53;;;21.59;60.66
48882;BME280;57063;51.406;-2.402;2023-07-29T08:59:16;99554.41;;;21.79;60.59
48882;BME280;57063;51.406;-2.402;2023-07-29T09:01:43;99551.09;;;22.37;58.24
48882;BME280;57063;51.406;-2.402;2023-07-29T09:04:08;99561.59;;;22.37;57.47
48882;BME280;57063;51.406;-2.402;2023-07-29T09:06:35;99558.41;;;22.05;57.64
48882;BME280;57063;51.406;-2.402;2023-07-29T09:09:01;99560.31;;;21.82;58.80
48882;BME280;57063;51.406;-2.402;2023-07-29T09:11:28;99557.31;;;21.85;59.47
48882;BME280;57063;51.406;-2.402;2023-07-29T09:13:53;99560.94;;;21.84;59.03
48882;BME280;57063;51.406;-2.402;2023-07-29T09:16:25;99570.94;;;21.44;58.32
48882;BME280;57063;51.406;-2.402;2023-07-29T09:18:51;99554.97;;;21.90;57.16
48882;BME280;57063;51.406;-2.402;2023-07-29T09:21:24;99565.13;;;21.63;57.78
48882;BME280;57063;51.406;-2.402;2023-07-29T09:23:51;99569.66;;;21.16;59.19
48882;BME280;57063;51.406;-2.402;2023-07-29T09:26:26;99566.06;;;20.94;61.63
48882;BME280;57063;51.406;-2.402;2023-07-29T09:28:54;99576.88;;;21.00;61.33
48882;BME280;57063;51.406;-2.402;2023-07-29T09:31:21;99570.16;;;20.51;62.21
48882;BME280;57063;51.406;-2.402;2023-07-29T09:33:47;99571.31;;;20.48;62.62
48882;BME280;57063;51.406;-2.402;2023-07-29T09:36:12;99564.25;;;20.80;62.29
48882;BME280;57063;51.406;-2.402;2023-07-29T09:38:38;99569.59;;;22.14;59.34
48882;BME280;57063;51.406;-2.402;2023-07-29T09:41:04;99565.97;;;22.30;56.78
48882;BME280;57063;51.406;-2.402;2023-07-29T09:43:32;99564.25;;;23.01;57.56
48882;BME280;57063;51.406;-2.402;2023-07-29T09:46:02;99567.41;;;23.46;55.45
48882;BME280;57063;51.406;-2.402;2023-07-29T09:48:28;99559.34;;;23.83;52.01
48882;BME280;57063;51.406;-2.402;2023-07-29T09:50:56;99553.63;;;23.79;51.85
48882;BME280;57063;51.406;-2.402;2023-07-29T09:53:22;99553.22;;;23.47;51.39
48882;BME280;57063;51.406;-2.402;2023-07-29T09:55:48;99566.22;;;24.39;51.68
48882;BME280;57063;51.406;-2.402;2023-07-29T09:58:19;99558.03;;;23.72;51.62
48882;BME280;57063;51.406;-2.402;2023-07-29T10:00:45;99567.53;;;24.96;49.83
48882;BME280;57063;51.406;-2.402;2023-07-29T10:03:11;99569.94;;;24.84;49.29
48882;BME280;57063;51.406;-2.402;2023-07-29T10:05:38;99563.84;;;24.57;50.36
48882;BME280;57063;51.406;-2.402;2023-07-29T10:08:05;99559.97;;;23.91;49.09
48882;BME280;57063;51.406;-2.402;2023-07-29T10:10:31;99555.31;;;23.59;50.88
48882;BME280;57063;51.406;-2.402;2023-07-29T10:12:56;99557.16;;;23.58;52.50
48882;BME280;57063;51.406;-2.402;2023-07-29T10:15:22;99567.41;;;23.46;51.95
48882;BME280;57063;51.406;-2.402;2023-07-29T10:17:48;99565.97;;;23.16;51.79
48882;BME280;57063;51.406;-2.402;2023-07-29T10:20:15;99564.97;;;24.28;49.86
48882;BME280;57063;51.406;-2.402;2023-07-29T10:22:42;99571.31;;;23.92;48.74
48882;BME280;57063;51.406;-2.402;2023-07-29T10:25:11;99567.59;;;23.73;48.60
48882;BME280;57063;51.406;-2.402;2023-07-29T10:28:03;99586.22;;;24.88;47.08
48882;BME280;57063;51.406;-2.402;2023-07-29T10:30:30;99577.66;;;24.99;47.20
48882;BME280;57063;51.406;-2.402;2023-07-29T10:32:58;99563.06;;;25.10;48.16
48882;BME280;57063;51.406;-2.402;2023-07-29T10:35:23;99572.63;;;25.17;47.21
48882;BME280;57063;51.406;-2.402;2023-07-29T10:37:50;99575.19;;;25.57;46.84
48882;BME280;57063;51.406;-2.402;2023-07-29T10:40:17;99586.22;;;25.14;46.49
48882;BME280;57063;51.406;-2.402;2023-07-29T10:43:02;99580.47;;;24.51;46.57
48882;BME280;57063;51.406;-2.402;2023-07-29T10:45:37;99584.78;;;22.91;48.80
48882;BME280;57063;51.406;-2.402;2023-07-29T10:48:13;99586.09;;;23.52;48.17
48882;BME280;57063;51.406;-2.402;2023-07-29T10:51:27;99581.03;;;23.91;49.56
48882;BME280;57063;51.406;-2.402;2023-07-29T10:53:58;99584.16;;;25.16;46.62
48882;BME280;57063;51.406;-2.402;2023-07-29T10:56:34;99599.53;;;24.53;47.92
48882;BME280;57063;51.406;-2.402;2023-07-29T11:01:42;99610.63;;;23.24;49.51
48882;BME280;57063;51.406;-2.402;2023-07-29T11:12:34;99607.09;;;22.74;54.17
48882;BME280;57063;51.406;-2.402;2023-07-29T11:17:35;99607.94;;;24.15;51.30
48882;BME280;57063;51.406;-2.402;2023-07-29T11:20:02;99598.19;;;23.74;50.11
48882;BME280;57063;51.406;-2.402;2023-07-29T11:22:29;99607.03;;;23.32;50.42
48882;BME280;57063;51.406;-2.402;2023-07-29T11:24:54;99612.53;;;24.00;49.38
48882;BME280;57063;51.406;-2.402;2023-07-29T11:27:20;99619.56;;;23.86;50.10
48882;BME280;57063;51.406;-2.402;2023-07-29T11:29:46;99624.34;;;24.59;48.21
48882;BME280;57063;51.406;-2.402;2023-07-29T11:32:12;99628.34;;;24.48;47.58
48882;BME280;57063;51.406;-2.402;2023-07-29T11:34:38;99619.28;;;24.84;48.62
48882;BME280;57063;51.406;-2.402;2023-07-29T11:37:05;99619.44;;;24.62;48.10
48882;BME280;57063;51.406;-2.402;2023-07-29T11:39:32;99627.72;;;23.98;48.94
48882;BME280;57063;51.406;-2.402;2023-07-29T11:41:58;99639.25;;;23.34;49.77
48882;BME280;57063;51.406;-2.402;2023-07-29T11:44:24;99639.16;;;23.48;49.35
48882;BME280;57063;51.406;-2.402;2023-07-29T11:46:50;99642.91;;;23.96;50.24
48882;BME280;57063;51.406;-2.402;2023-07-29T11:49:15;99646.88;;;24.61;48.63
48882;BME280;57063;51.406;-2.402;2023-07-29T11:51:41;99647.38;;;24.37;47.70
48882;BME280;57063;51.406;-2.402;2023-07-29T11:54:08;99642.59;;;24.53;46.40
48882;BME280;57063;51.406;-2.402;2023-07-29T11:56:34;99650.03;;;25.25;45.73
48882;BME280;57063;51.406;-2.402;2023-07-29T11:59:01;99655.06;;;25.73;44.29
48882;BME280;57063;51.406;-2.402;2023-07-29T12:01:28;99647.56;;;25.56;44.32
48882;BME280;57063;51.406;-2.402;2023-07-29T12:03:55;99647.75;;;25.68;44.38
48882;BME280;57063;51.406;-2.402;2023-07-29T12:06:21;99660.19;;;26.39;44.92
48882;BME280;57063;51.406;-2.402;2023-07-29T12:08:47;99648.97;;;25.92;43.70
48882;BME280;57063;51.406;-2.402;2023-07-29T12:11:13;99661.16;;;25.60;44.57
48882;BME280;57063;51.406;-2.402;2023-07-29T12:13:41;99649.25;;;26.29;43.28
48882;BME280;57063;51.406;-2.402;2023-07-29T12:16:06;99671.09;;;26.04;42.09
48882;BME280;57063;51.406;-2.402;2023-07-29T12:18:32;99665.56;;;26.64;41.47
48882;BME280;57063;51.406;-2.402;2023-07-29T12:20:58;99662.41;;;26.42;41.22
48882;BME280;57063;51.406;-2.402;2023-07-29T12:23:24;99656.41;;;26.09;41.99
48882;BME280;57063;51.406;-2.402;2023-07-29T12:25:56;99658.69;;;26.57;40.60
48882;BME280;57063;51.406;-2.402;2023-07-29T12:28:22;99664.09;;;27.07;41.35
48882;BME280;57063;51.406;-2.402;2023-07-29T12:30:47;99664.97;;;26.62;38.95
48882;BME280;57063;51.406;-2.402;2023-07-29T12:33:32;99665.28;;;27.11;39.30
48882;BME280;57063;51.406;-2.402;2023-07-29T12:35:59;99673.75;;;26.50;40.83
48882;BME280;57063;51.406;-2.402;2023-07-29T12:38:28;99661.84;;;26.72;39.78
48882;BME280;57063;51.406;-2.402;2023-07-29T12:40:54;99654.69;;;27.11;41.41
48882;BME280;57063;51.406;-2.402;2023-07-29T12:43:19;99672.34;;;27.49;39.64
48882;BME280;57063;51.406;-2.402;2023-07-29T12:45:45;99666.91;;;27.62;38.80
48882;BME280;57063;51.406;-2.402;2023-07-29T12:48:11;99667.50;;;27.46;38.47
48882;BME280;57063;51.406;-2.402;2023-07-29T12:50:37;99676.75;;;27.55;39.27
48882;BME280;57063;51.406;-2.402;2023-07-29T12:53:06;99676.41;;;28.13;38.40
48882;BME280;57063;51.406;-2.402;2023-07-29T12:55:31;99665.28;;;28.72;38.21
48882;BME280;57063;51.406;-2.402;2023-07-29T12:57:57;99669.94;;;28.09;38.28
48882;BME280;57063;51.406;-2.402;2023-07-29T13:00:24;99673.22;;;28.23;38.92